createdAt,value
2022-12-01T00:01:35.633Z,100036.40
2022-12-01T00:04:03.591Z,100034.60
2022-12-01T00:06:31.446Z,100032.20
2022-12-01T00:09:19.991Z,100023.40
2022-12-01T00:11:48.958Z,100024.40
2022-12-01T00:14:16.909Z,100022.20
2022-12-01T00:16:44.880Z,100026.80
2022-12-01T00:19:12.926Z,100026.80
2022-12-01T00:21:40.883Z,100028.20
2022-12-01T00:24:11.901Z,100028.60
2022-12-01T00:26:39.825Z,100026.00
2022-12-01T00:29:07.961Z,100024.00
2022-12-01T00:31:35.963Z,100026.20
2022-12-01T00:34:08.113Z,100029.00
2022-12-01T00:36:39.174Z,100026.00
2022-12-01T00:39:06.907Z,100020.40
2022-12-01T00:41:34.643Z,100022.20
2022-12-01T00:44:02.658Z,100030.60
2022-12-01T00:46:30.541Z,100022.80
2022-12-01T00:48:58.317Z,100021.00
2022-12-01T00:51:27.422Z,100022.80
2022-12-01T00:53:55.134Z,100016.60
2022-12-01T00:56:22.827Z,100017.20
2022-12-01T00:58:50.507Z,100009.80
2022-12-01T01:01:19.385Z,100009.80
2022-12-01T01:03:47.210Z,100009.80
2022-12-01T01:06:15.191Z,100007.80
2022-12-01T01:08:43.109Z,100005.20
2022-12-01T01:11:10.841Z,100005.20
2022-12-01T01:13:38.814Z,100007.80
2022-12-01T01:16:20.864Z,100005.20
2022-12-01T01:18:49.255Z,100005.20
2022-12-01T01:21:21.223Z,100012.80
2022-12-01T01:23:50.904Z,100016.20
2022-12-01T01:26:26.867Z,100012.00
2022-12-01T01:29:02.164Z,100009.40
2022-12-01T01:31:31.320Z,100002.20
2022-12-01T01:33:59.362Z,100005.20
2022-12-01T01:36:27.776Z,100011.20
2022-12-01T01:38:55.854Z,100003.80
2022-12-01T01:41:24.257Z,100005.20
2022-12-01T01:43:56.560Z,100001.60
2022-12-01T01:46:41.991Z,99997.00
2022-12-01T01:49:16.265Z,99996.20
2022-12-01T01:51:51.141Z,99997.40
2022-12-01T01:54:44.691Z,99995.40
2022-12-01T01:57:20.119Z,99994.00
2022-12-01T01:59:55.503Z,99992.60
2022-12-01T02:02:23.264Z,99987.60
2022-12-01T02:04:58.714Z,99992.80
2022-12-01T02:07:26.549Z,99995.40
2022-12-01T02:09:55.499Z,99992.60
2022-12-01T02:13:29.875Z,99988.60
2022-12-01T02:16:16.630Z,99991.60
2022-12-01T02:19:49.403Z,99992.00
2022-12-01T02:22:29.098Z,99987.20
2022-12-01T02:25:16.901Z,99991.40
2022-12-01T02:28:13.803Z,99992.00
2022-12-01T02:31:03.140Z,99993.40
2022-12-01T02:34:05.826Z,99989.80
2022-12-01T02:37:00.568Z,99984.80
2022-12-01T02:39:34.175Z,99983.20
2022-12-01T02:42:32.573Z,99979.80
2022-12-01T02:45:06.171Z,99976.20
2022-12-01T02:47:37.462Z,99973.60
2022-12-01T02:50:07.888Z,99980.60
2022-12-01T02:52:37.370Z,99970.60
2022-12-01T02:55:05.535Z,99969.40
2022-12-01T02:57:33.113Z,99969.00
2022-12-01T03:00:02.385Z,99968.00
2022-12-01T03:02:42.331Z,99965.60
2022-12-01T03:05:24.491Z,99966.60
2022-12-01T03:08:02.952Z,99957.60
2022-12-01T03:10:55.117Z,99959.60
2022-12-01T03:13:54.592Z,99965.00
2022-12-01T03:16:48.717Z,99956.00
2022-12-01T03:19:44.191Z,99963.40
2022-12-01T03:22:24.886Z,99958.80
2022-12-01T03:24:56.543Z,99962.20
2022-12-01T03:27:30.052Z,99962.00
2022-12-01T03:30:02.289Z,99968.40
2022-12-01T03:32:43.602Z,99967.40
2022-12-01T03:35:38.794Z,99961.80
2022-12-01T03:38:14.611Z,99957.40
2022-12-01T03:40:46.290Z,99956.00
2022-12-01T03:43:21.281Z,99957.00
2022-12-01T03:46:36.124Z,99954.00
2022-12-01T03:49:05.758Z,99960.60
2022-12-01T03:51:59.108Z,99956.40
2022-12-01T03:55:13.011Z,99953.20
2022-12-01T03:57:58.478Z,99952.20
2022-12-01T04:00:26.938Z,99951.40
2022-12-01T04:03:03.255Z,99950.40
2022-12-01T04:05:34.201Z,99946.80
2022-12-01T04:08:02.013Z,99945.20
2022-12-01T04:10:29.805Z,99941.60
2022-12-01T04:12:59.709Z,99941.00
2022-12-01T04:15:28.101Z,99938.80
2022-12-01T04:17:55.759Z,99943.60
2022-12-01T04:20:23.467Z,99946.60
2022-12-01T04:22:51.100Z,99944.20
2022-12-01T04:25:18.791Z,99939.80
2022-12-01T04:27:46.704Z,99942.20
2022-12-01T04:30:14.656Z,99940.00
2022-12-01T04:32:43.787Z,99941.40
2022-12-01T04:35:12.732Z,99940.20
2022-12-01T04:37:40.488Z,99929.60
2022-12-01T04:40:08.927Z,99935.40
2022-12-01T04:42:36.760Z,99940.20
2022-12-01T04:45:04.857Z,99938.20
2022-12-01T04:47:32.542Z,99940.00
2022-12-01T04:50:00.647Z,99940.60
2022-12-01T04:52:32.120Z,99936.00
2022-12-01T04:55:04.393Z,99930.80
2022-12-01T04:57:31.962Z,99934.40
2022-12-01T04:59:59.620Z,99940.40
2022-12-01T05:02:27.477Z,99941.40
2022-12-01T05:04:55.343Z,99940.40
2022-12-01T05:07:23.184Z,99940.60
2022-12-01T05:09:51.145Z,99949.80
2022-12-01T05:12:19.489Z,99941.00
2022-12-01T05:14:47.131Z,99946.40
2022-12-01T05:17:14.826Z,99948.60
2022-12-01T05:20:01.432Z,99947.00
2022-12-01T05:23:03.326Z,99954.80
2022-12-01T05:25:16.773Z,99944.00
2022-12-01T05:27:44.972Z,99946.40
2022-12-01T05:30:12.908Z,99949.40
2022-12-01T05:32:40.656Z,99952.40
2022-12-01T05:35:08.742Z,99951.60
2022-12-01T05:37:36.367Z,99955.00
2022-12-01T05:40:04.930Z,99952.20
2022-12-01T05:42:32.643Z,99948.60
2022-12-01T05:45:00.253Z,99951.00
2022-12-01T05:47:27.951Z,99955.80
2022-12-01T05:49:56.900Z,99955.00
2022-12-01T05:52:27.279Z,99962.00
2022-12-01T05:54:55.003Z,99961.00
2022-12-01T05:57:22.628Z,99955.20
2022-12-01T05:59:50.753Z,99961.40
2022-12-01T06:02:18.880Z,99962.60
2022-12-01T06:04:46.878Z,99962.80
2022-12-01T06:07:14.693Z,99969.80
2022-12-01T06:09:42.389Z,99969.20
2022-12-01T06:12:10.047Z,99968.40
2022-12-01T06:14:37.913Z,99970.40
2022-12-01T06:17:05.708Z,99973.20
2022-12-01T06:19:33.422Z,99979.60
2022-12-01T06:22:01.316Z,99968.80
2022-12-01T06:24:29.029Z,99970.40
2022-12-01T06:26:56.702Z,99971.60
2022-12-01T06:29:24.374Z,99971.20
2022-12-01T06:31:52.117Z,99970.60
2022-12-01T06:34:19.879Z,99975.60
2022-12-01T06:36:47.590Z,99979.20
2022-12-01T06:39:17.418Z,99976.20
2022-12-01T06:41:45.114Z,99970.80
2022-12-01T06:44:12.836Z,99976.20
2022-12-01T06:46:40.741Z,99976.20
2022-12-01T06:49:12.308Z,99982.80
2022-12-01T06:51:40.392Z,99985.00
2022-12-01T06:54:08.127Z,99993.20
2022-12-01T06:56:35.758Z,99992.40
2022-12-01T06:59:03.945Z,99999.00
2022-12-01T07:01:32.024Z,99995.80
2022-12-01T07:03:59.832Z,99994.60
2022-12-01T07:06:30.625Z,99998.00
2022-12-01T07:08:58.714Z,99998.00
2022-12-01T07:11:26.390Z,100001.20
2022-12-01T07:13:57.084Z,100001.60
2022-12-01T07:16:25.408Z,99997.80
2022-12-01T07:18:53.169Z,100008.60
2022-12-01T07:21:20.775Z,100006.80
2022-12-01T07:23:48.415Z,100002.20
2022-12-01T07:26:18.516Z,100005.20
2022-12-01T07:28:46.313Z,100006.60
2022-12-01T07:31:18.460Z,99999.40
2022-12-01T07:33:46.370Z,100000.20
2022-12-01T07:36:14.724Z,100002.20
2022-12-01T07:38:43.360Z,100000.40
2022-12-01T07:41:15.045Z,99998.00
2022-12-01T07:43:43.198Z,100006.00
2022-12-01T07:46:18.899Z,100011.00
2022-12-01T07:48:50.417Z,100000.80
2022-12-01T07:51:18.277Z,100006.00
2022-12-01T07:53:49.241Z,99999.60
2022-12-01T07:56:18.571Z,99996.80
2022-12-01T07:58:46.780Z,99993.40
2022-12-01T08:01:19.276Z,99998.20
2022-12-01T08:03:53.112Z,99998.20
2022-12-01T08:06:22.523Z,100002.20
2022-12-01T08:08:50.811Z,100002.00
2022-12-01T08:11:23.087Z,100005.20
2022-12-01T08:13:52.772Z,100003.40
2022-12-01T08:16:23.223Z,100012.40
2022-12-01T08:18:51.478Z,100010.40
2022-12-01T08:21:22.672Z,100004.60
2022-12-01T08:23:58.312Z,100004.60
2022-12-01T08:26:27.477Z,100013.00
2022-12-01T08:28:55.816Z,100006.80
2022-12-01T08:31:31.783Z,100008.00
2022-12-01T08:33:59.578Z,100009.40
2022-12-01T08:36:27.431Z,100011.80
2022-12-01T08:38:56.342Z,100009.40
2022-12-01T08:41:25.257Z,100009.40
2022-12-01T08:43:58.259Z,100010.60
2022-12-01T08:46:34.355Z,100009.80
2022-12-01T08:49:04.836Z,100011.00
2022-12-01T08:51:33.185Z,100010.80
2022-12-01T08:54:01.412Z,100010.20
2022-12-01T08:56:40.302Z,100013.80
2022-12-01T08:59:09.025Z,100012.40
2022-12-01T09:01:52.984Z,100013.00
2022-12-01T09:04:24.417Z,100012.20
2022-12-01T09:06:55.343Z,100009.20
2022-12-01T09:09:29.157Z,100008.20
2022-12-01T09:11:57.219Z,100010.00
2022-12-01T09:14:24.978Z,100010.00
2022-12-01T09:16:52.816Z,100013.60
2022-12-01T09:19:24.522Z,100015.80
2022-12-01T09:21:53.230Z,100013.40
2022-12-01T09:24:21.169Z,100011.80
2022-12-01T09:26:48.989Z,100008.20
2022-12-01T09:29:17.005Z,100002.20
2022-12-01T09:31:44.838Z,99997.60
2022-12-01T09:34:17.119Z,100003.80
2022-12-01T09:36:46.948Z,99995.20
2022-12-01T09:39:18.650Z,99992.80
2022-12-01T09:41:58.910Z,99994.20
2022-12-01T09:44:36.218Z,99990.60
2022-12-01T09:47:13.376Z,99986.00
2022-12-01T09:50:16.597Z,99985.00
2022-12-01T09:52:51.562Z,99982.00
2022-12-01T09:55:23.506Z,99978.20
2022-12-01T09:57:58.326Z,99972.20
2022-12-01T10:00:35.173Z,99978.00
2022-12-01T10:03:34.779Z,99978.60
2022-12-01T10:06:32.051Z,99980.00
2022-12-01T10:09:20.843Z,99977.40
2022-12-01T10:11:55.007Z,99973.20
2022-12-01T10:14:22.660Z,99964.40
2022-12-01T10:17:11.831Z,99965.00
2022-12-01T10:20:26.030Z,99970.60
2022-12-01T10:23:14.238Z,99973.20
2022-12-01T10:25:53.561Z,99972.40
2022-12-01T10:28:50.339Z,99970.80
2022-12-01T10:31:54.170Z,99974.20
2022-12-01T10:34:39.180Z,99967.00
2022-12-01T10:37:18.054Z,99965.80
2022-12-01T10:39:50.224Z,99961.80
2022-12-01T10:42:34.587Z,99959.00
2022-12-01T10:45:08.285Z,99957.40
2022-12-01T10:47:35.995Z,99957.40
2022-12-01T10:50:04.745Z,99955.60
2022-12-01T10:52:40.994Z,99950.20
2022-12-01T10:55:24.890Z,99947.60
2022-12-01T10:57:56.614Z,99948.80
2022-12-01T11:00:58.598Z,99953.20
2022-12-01T11:03:30.367Z,99951.40
2022-12-01T11:06:01.621Z,99949.80
2022-12-01T11:08:50.459Z,99948.80
2022-12-01T11:11:38.876Z,99950.60
2022-12-01T11:14:20.193Z,99951.20
2022-12-01T11:16:52.055Z,99952.60
2022-12-01T11:19:34.789Z,99945.80
2022-12-01T11:22:26.734Z,99943.40
2022-12-01T11:25:02.523Z,99941.20
2022-12-01T11:27:54.341Z,99937.80
2022-12-01T11:30:29.442Z,99940.80
2022-12-01T11:33:02.302Z,99937.20
2022-12-01T11:35:35.444Z,99938.00
2022-12-01T11:40:58.635Z,99931.00
2022-12-01T11:43:36.089Z,99933.00
2022-12-01T11:46:07.552Z,99939.20
2022-12-01T11:48:36.627Z,99933.80
2022-12-01T11:51:20.100Z,99931.00
2022-12-01T11:53:47.886Z,99934.20
2022-12-01T11:56:30.292Z,99925.20
2022-12-01T11:59:06.493Z,99925.00
2022-12-01T12:02:24.077Z,99918.40
2022-12-01T12:05:28.747Z,99913.20
2022-12-01T12:08:27.083Z,99915.00
2022-12-01T12:11:24.552Z,99926.40
2022-12-01T12:14:01.653Z,99926.60
2022-12-01T12:17:25.261Z,99928.40
2022-12-01T12:20:08.105Z,99935.20
2022-12-01T12:22:55.756Z,99928.00
2022-12-01T12:25:52.332Z,99930.40
2022-12-01T12:28:22.578Z,99932.40
2022-12-01T12:31:02.160Z,99926.20
2022-12-01T12:34:14.591Z,99924.20
2022-12-01T12:37:19.941Z,99927.60
2022-12-01T12:40:19.056Z,99926.60
2022-12-01T12:43:14.653Z,99930.20
2022-12-01T12:46:11.198Z,99930.40
2022-12-01T12:49:25.772Z,99930.00
2022-12-01T12:52:20.149Z,99931.20
2022-12-01T12:55:22.208Z,99937.40
2022-12-01T12:58:06.666Z,99935.40
2022-12-01T13:00:46.662Z,99934.80
2022-12-01T13:03:34.751Z,99937.60
2022-12-01T13:06:25.237Z,99940.60
2022-12-01T13:09:11.259Z,99940.80
2022-12-01T13:11:50.180Z,99938.80
2022-12-01T13:14:32.019Z,99939.40
2022-12-01T13:17:21.191Z,99933.40
2022-12-01T13:19:49.485Z,99932.60
2022-12-01T13:22:23.326Z,99931.40
2022-12-01T13:24:51.600Z,99933.20
2022-12-01T13:27:27.283Z,99930.80
2022-12-01T13:29:57.129Z,99930.60
2022-12-01T13:32:36.626Z,99931.60
2022-12-01T13:35:26.896Z,99933.80
2022-12-01T13:38:20.790Z,99934.40
2022-12-01T13:40:49.725Z,99937.40
2022-12-01T13:43:23.129Z,99942.40
2022-12-01T13:45:51.748Z,99944.20
2022-12-01T13:48:39.717Z,99947.60
2022-12-01T13:51:07.687Z,99949.40
2022-12-01T13:53:37.862Z,99947.40
2022-12-01T13:56:17.552Z,99944.60
2022-12-01T13:58:50.122Z,99939.00
2022-12-01T14:01:45.605Z,99937.60
2022-12-01T14:04:16.513Z,99936.20
2022-12-01T14:07:09.845Z,99935.20
2022-12-01T14:09:41.691Z,99943.40
2022-12-01T14:12:31.531Z,99943.40
2022-12-01T14:15:05.071Z,99942.20
2022-12-01T14:17:37.702Z,99935.80
2022-12-01T14:20:20.579Z,99935.40
2022-12-01T14:23:44.869Z,99943.20
2022-12-01T14:26:22.757Z,99941.20
2022-12-01T14:29:02.392Z,99946.00
2022-12-01T14:31:32.987Z,99945.60
2022-12-01T14:34:24.285Z,99945.80
2022-12-01T14:37:03.555Z,99946.60
2022-12-01T14:39:35.670Z,99939.80
2022-12-01T14:42:46.739Z,99938.60
2022-12-01T14:45:22.472Z,99942.20
2022-12-01T14:48:03.982Z,99944.00
2022-12-01T14:50:46.222Z,99942.00
2022-12-01T14:53:31.012Z,99943.00
2022-12-01T14:56:19.705Z,99936.60
2022-12-01T14:58:54.942Z,99935.80
2022-12-01T15:01:25.536Z,99938.40
2022-12-01T15:04:04.251Z,99948.60
2022-12-01T15:06:34.748Z,99939.40
2022-12-01T15:09:35.404Z,99940.20
2022-12-01T15:12:09.334Z,99938.40
2022-12-01T15:14:47.819Z,99941.00
2022-12-01T15:17:37.009Z,99938.60
2022-12-01T15:20:35.579Z,99939.80
2022-12-01T15:23:14.832Z,99942.00
2022-12-01T15:25:47.095Z,99941.60
2022-12-01T15:28:20.634Z,99938.40
2022-12-01T15:30:53.751Z,99937.60
2022-12-01T15:33:28.965Z,99935.60
2022-12-01T15:36:00.635Z,99934.40
2022-12-01T15:38:35.747Z,99935.60
2022-12-01T15:41:28.492Z,99938.00
2022-12-01T15:43:57.898Z,99941.80
2022-12-01T15:46:37.161Z,99942.20
2022-12-01T15:49:17.328Z,99944.80
2022-12-01T15:51:50.100Z,99945.40
2022-12-01T15:54:26.486Z,99941.00
2022-12-01T15:56:59.098Z,99939.80
2022-12-01T15:59:29.724Z,99940.80
2022-12-01T16:01:58.503Z,99936.80
2022-12-01T16:04:32.304Z,99938.40
2022-12-01T16:07:11.082Z,99933.40
2022-12-01T16:09:56.610Z,99926.40
2022-12-01T16:12:28.243Z,99937.00
2022-12-01T16:15:11.610Z,99932.80
2022-12-01T16:17:52.558Z,99937.00
2022-12-01T16:20:40.771Z,99939.40
2022-12-01T16:23:23.391Z,99933.60
2022-12-01T16:25:51.521Z,99937.00
2022-12-01T16:28:34.606Z,99936.00
2022-12-01T16:31:05.708Z,99938.00
2022-12-01T16:33:38.846Z,99937.20
2022-12-01T16:36:07.114Z,99936.80
2022-12-01T16:38:34.964Z,99933.80
2022-12-01T16:41:16.937Z,99933.20
2022-12-01T16:43:59.459Z,99933.80
2022-12-01T16:46:32.626Z,99934.80
2022-12-01T16:49:00.334Z,99938.20
2022-12-01T16:51:35.596Z,99931.80
2022-12-01T16:54:16.165Z,99933.60
2022-12-01T16:56:44.015Z,99930.80
2022-12-01T16:59:11.698Z,99936.80
2022-12-01T17:01:39.547Z,99931.60
2022-12-01T17:04:07.909Z,99930.60
2022-12-01T17:06:36.136Z,99930.40
2022-12-01T17:09:04.609Z,99926.60
2022-12-01T17:11:33.080Z,99929.60
2022-12-01T17:14:00.941Z,99931.00
2022-12-01T17:16:28.728Z,99934.00
2022-12-01T17:18:56.488Z,99929.20
2022-12-01T17:21:24.205Z,99930.80
2022-12-01T17:23:52.107Z,99929.60
2022-12-01T17:26:21.281Z,99937.00
2022-12-01T17:28:48.976Z,99937.00
2022-12-01T17:31:16.801Z,99933.60
2022-12-01T17:33:44.912Z,99933.60
2022-12-01T17:36:14.776Z,99933.00
2022-12-01T17:38:45.878Z,99936.20
2022-12-01T17:41:24.857Z,99933.00
2022-12-01T17:43:52.656Z,99932.20
2022-12-01T17:46:20.591Z,99938.60
2022-12-01T17:48:48.709Z,99933.80
2022-12-01T17:51:16.874Z,99935.40
2022-12-01T17:53:44.789Z,99931.80
2022-12-01T17:56:16.634Z,99925.20
2022-12-01T17:58:44.946Z,99924.80
2022-12-01T18:01:16.696Z,99925.40
2022-12-01T18:03:45.301Z,99928.40
2022-12-01T18:06:13.787Z,99933.40
2022-12-01T18:08:42.754Z,99931.80
2022-12-01T18:11:16.766Z,99933.80
2022-12-01T18:13:49.157Z,99928.00
2022-12-01T18:16:26.964Z,99938.00
2022-12-01T18:18:57.042Z,99935.60
2022-12-01T18:21:26.747Z,99931.20
2022-12-01T18:23:58.488Z,99929.60
2022-12-01T18:26:28.265Z,99932.40
2022-12-01T18:29:02.004Z,99933.20
2022-12-01T18:31:30.448Z,99927.40
2022-12-01T18:34:04.758Z,99928.60
2022-12-01T18:36:35.925Z,99930.40
2022-12-01T18:39:06.811Z,99935.00
2022-12-01T18:41:35.766Z,99940.00
2022-12-01T18:44:04.440Z,99941.60
2022-12-01T18:46:32.468Z,99931.00
2022-12-01T18:49:02.733Z,99938.20
2022-12-01T18:51:34.350Z,99939.60
2022-12-01T18:54:05.069Z,99937.40
2022-12-01T18:56:34.155Z,99941.60
2022-12-01T18:59:08.807Z,99940.60
2022-12-01T19:01:43.892Z,99937.80
2022-12-01T19:04:14.625Z,99938.80
2022-12-01T19:06:44.880Z,99938.80
2022-12-01T19:09:15.721Z,99940.60
2022-12-01T19:11:44.290Z,99939.00
2022-12-01T19:14:19.659Z,99936.60
2022-12-01T19:16:47.457Z,99940.80
2022-12-01T19:19:15.622Z,99932.60
2022-12-01T19:21:45.124Z,99932.20
2022-12-01T19:24:13.435Z,99938.00
2022-12-01T19:26:41.306Z,99934.60
2022-12-01T19:29:09.319Z,99941.40
2022-12-01T19:31:37.457Z,99938.20
2022-12-01T19:34:05.742Z,99935.40
2022-12-01T19:36:33.546Z,99929.20
2022-12-01T19:39:03.954Z,99927.60
2022-12-01T19:41:35.207Z,99933.60
2022-12-01T19:44:02.996Z,99933.60
2022-12-01T19:46:30.665Z,99926.20
2022-12-01T19:49:01.643Z,99921.40
2022-12-01T19:51:35.164Z,99928.80
2022-12-01T19:54:06.207Z,99926.00
2022-12-01T19:56:34.545Z,99925.00
2022-12-01T19:59:02.291Z,99925.00
2022-12-01T20:01:30.186Z,99917.40
2022-12-01T20:03:58.012Z,99917.40
2022-12-01T20:06:29.951Z,99915.00
2022-12-01T20:09:02.240Z,99914.60
2022-12-01T20:11:32.921Z,99916.60
2022-12-01T20:14:03.777Z,99905.80
2022-12-01T20:16:32.295Z,99911.80
2022-12-01T20:19:04.583Z,99911.40
2022-12-01T20:21:39.097Z,99906.60
2022-12-01T20:24:10.793Z,99908.80
2022-12-01T20:26:43.650Z,99908.00
2022-12-01T20:29:19.780Z,99908.60
2022-12-01T20:31:50.226Z,99909.60
2022-12-01T20:34:30.122Z,99909.40
2022-12-01T20:36:58.004Z,99909.60
2022-12-01T20:39:27.183Z,99911.40
2022-12-01T20:41:54.963Z,99905.00
2022-12-01T20:44:23.023Z,99905.00
2022-12-01T20:46:50.808Z,99906.80
2022-12-01T20:49:19.348Z,99903.20
2022-12-01T20:51:47.599Z,99903.60
2022-12-01T20:54:33.217Z,99906.80
2022-12-01T20:57:00.973Z,99905.60
2022-12-01T20:59:29.212Z,99912.80
2022-12-01T21:01:56.943Z,99912.80
2022-12-01T21:04:24.947Z,99918.60
2022-12-01T21:06:56.898Z,99916.00
2022-12-01T21:09:26.174Z,99911.20
2022-12-01T21:12:15.008Z,99914.20
2022-12-01T21:14:52.446Z,99914.40
2022-12-01T21:17:39.312Z,99916.20
2022-12-01T21:20:27.183Z,99915.40
2022-12-01T21:23:02.595Z,99919.20
2022-12-01T21:25:31.011Z,99916.00
2022-12-01T21:28:05.573Z,99914.60
2022-12-01T21:30:33.926Z,99918.60
2022-12-01T21:33:35.122Z,99921.20
2022-12-01T21:36:16.602Z,99912.80
2022-12-01T21:38:45.588Z,99911.80
2022-12-01T21:41:24.041Z,99914.20
2022-12-01T21:43:54.226Z,99912.80
2022-12-01T21:46:22.204Z,99918.20
2022-12-01T21:48:50.034Z,99915.40
2022-12-01T21:51:23.491Z,99920.20
2022-12-01T21:53:54.108Z,99912.40
2022-12-01T21:56:28.586Z,99912.40
2022-12-01T21:59:06.004Z,99906.20
2022-12-01T22:01:34.395Z,99906.00
2022-12-01T22:04:14.940Z,99901.40
2022-12-01T22:06:49.824Z,99902.60
2022-12-01T22:09:36.692Z,99903.40
2022-12-01T22:12:10.309Z,99902.20
2022-12-01T22:14:38.742Z,99902.20
2022-12-01T22:17:06.286Z,99907.60
2022-12-01T22:19:38.493Z,99906.60
2022-12-01T22:22:18.324Z,99908.20
2022-12-01T22:25:00.225Z,99904.60
2022-12-01T22:27:36.288Z,99899.20
2022-12-01T22:30:07.481Z,99899.80
2022-12-01T22:32:57.195Z,99894.00
2022-12-01T22:35:26.797Z,99903.20
2022-12-01T22:38:30.884Z,99897.00
2022-12-01T22:41:05.477Z,99899.60
2022-12-01T22:43:49.764Z,99900.00
2022-12-01T22:46:30.382Z,99899.80
2022-12-01T22:49:08.606Z,99898.40
2022-12-01T22:51:59.723Z,99898.80
2022-12-01T22:54:46.118Z,99889.40
2022-12-01T22:57:28.450Z,99887.60
2022-12-01T22:59:56.900Z,99886.40
2022-12-01T23:02:33.131Z,99888.60
2022-12-01T23:05:29.492Z,99888.80
2022-12-01T23:07:57.664Z,99884.60
2022-12-01T23:10:33.463Z,99877.40
2022-12-01T23:13:15.379Z,99875.80
2022-12-01T23:15:51.558Z,99868.40
2022-12-01T23:18:31.583Z,99872.20
2022-12-01T23:21:01.719Z,99869.80
2022-12-01T23:23:36.321Z,99869.60
2022-12-01T23:26:08.349Z,99862.00
2022-12-01T23:28:38.977Z,99862.20
2022-12-01T23:31:08.567Z,99865.80
2022-12-01T23:33:36.834Z,99871.80
2022-12-01T23:36:25.820Z,99869.40
2022-12-01T23:39:01.597Z,99867.00
2022-12-01T23:41:51.203Z,99869.80
2022-12-01T23:44:24.876Z,99870.20
2022-12-01T23:46:57.120Z,99868.20
2022-12-01T23:49:31.369Z,99869.00
2022-12-01T23:52:02.840Z,99863.80
2022-12-01T23:54:34.750Z,99861.40
2022-12-01T23:57:12.800Z,99869.60
2022-12-01T23:59:40.468Z,99866.80
